sensor_id;sensor_type;location;lat;lon;timestamp;P1;durP1;ratioP1;P2;durP2;ratioP2
81801;SDS011;71199;52.490;5.448;2023-07-13T00:00:17;13.18;;;4.03;;
81801;SDS011;71199;52.490;5.448;2023-07-13T00:02:43;9.80;;;3.75;;
81801;SDS011;71199;52.490;5.448;2023-07-13T00:05:09;12.50;;;3.83;;
81801;SDS011;71199;52.490;5.448;2023-07-13T00:07:35;12.85;;;3.05;;
81801;SDS011;71199;52.490;5.448;2023-07-13T00:10:01;10.43;;;3.92;;
81801;SDS011;71199;52.490;5.448;2023-07-13T00:14:54;10.40;;;3.00;;
81801;SDS011;71199;52.490;5.448;2023-07-13T00:17:25;12.45;;;4.03;;
81801;SDS011;71199;52.490;5.448;2023-07-13T00:19:51;13.15;;;3.97;;
81801;SDS011;71199;52.490;5.448;2023-07-13T00:22:17;15.15;;;3.95;;
81801;SDS011;71199;52.490;5.448;2023-07-13T00:24:43;9.95;;;3.35;;
81801;SDS011;71199;52.490;5.448;2023-07-13T00:27:09;12.23;;;3.63;;
81801;SDS011;71199;52.490;5.448;2023-07-13T00:29:35;11.93;;;3.65;;
81801;SDS011;71199;52.490;5.448;2023-07-13T00:32:02;14.90;;;4.32;;
81801;SDS011;71199;52.490;5.448;2023-07-13T00:34:28;19.75;;;4.72;;
81801;SDS011;71199;52.490;5.448;2023-07-13T00:36:54;13.85;;;4.22;;
81801;SDS011;71199;52.490;5.448;2023-07-13T00:39:19;18.00;;;5.80;;
81801;SDS011;71199;52.490;5.448;2023-07-13T00:41:46;15.50;;;4.45;;
81801;SDS011;71199;52.490;5.448;2023-07-13T00:44:14;25.55;;;4.68;;
81801;SDS011;71199;52.490;5.448;2023-07-13T00:46:41;11.80;;;4.03;;
81801;SDS011;71199;52.490;5.448;2023-07-13T00:49:07;21.45;;;5.22;;
81801;SDS011;71199;52.490;5.448;2023-07-13T00:51:45;16.42;;;4.03;;
81801;SDS011;71199;52.490;5.448;2023-07-13T00:54:11;15.57;;;4.72;;
81801;SDS011;71199;52.490;5.448;2023-07-13T00:56:40;13.30;;;3.90;;
81801;SDS011;71199;52.490;5.448;2023-07-13T00:59:08;20.15;;;4.65;;
81801;SDS011;71199;52.490;5.448;2023-07-13T01:01:36;21.92;;;4.53;;
81801;SDS011;71199;52.490;5.448;2023-07-13T01:04:03;19.95;;;5.47;;
81801;SDS011;71199;52.490;5.448;2023-07-13T01:06:28;16.42;;;4.45;;
81801;SDS011;71199;52.490;5.448;2023-07-13T01:08:55;24.50;;;5.55;;
81801;SDS011;71199;52.490;5.448;2023-07-13T01:13:48;15.27;;;3.47;;
81801;SDS011;71199;52.490;5.448;2023-07-13T01:16:19;14.40;;;3.95;;
81801;SDS011;71199;52.490;5.448;2023-07-13T01:18:50;20.33;;;4.50;;
81801;SDS011;71199;52.490;5.448;2023-07-13T01:21:16;13.82;;;3.92;;
81801;SDS011;71199;52.490;5.448;2023-07-13T01:23:43;16.35;;;4.45;;
81801;SDS011;71199;52.490;5.448;2023-07-13T01:26:09;19.77;;;4.50;;
81801;SDS011;71199;52.490;5.448;2023-07-13T01:28:34;19.25;;;4.88;;
81801;SDS011;71199;52.490;5.448;2023-07-13T01:31:02;20.88;;;4.88;;
81801;SDS011;71199;52.490;5.448;2023-07-13T01:33:28;16.92;;;4.80;;
81801;SDS011;71199;52.490;5.448;2023-07-13T01:35:53;17.63;;;4.70;;
81801;SDS011;71199;52.490;5.448;2023-07-13T01:38:22;23.63;;;4.82;;
81801;SDS011;71199;52.490;5.448;2023-07-13T01:40:50;20.75;;;4.35;;
81801;SDS011;71199;52.490;5.448;2023-07-13T01:43:16;26.58;;;4.72;;
81801;SDS011;71199;52.490;5.448;2023-07-13T01:45:42;21.48;;;5.20;;
81801;SDS011;71199;52.490;5.448;2023-07-13T01:48:09;18.30;;;5.15;;
81801;SDS011;71199;52.490;5.448;2023-07-13T01:50:35;20.45;;;5.63;;
81801;SDS011;71199;52.490;5.448;2023-07-13T01:53:01;23.17;;;6.22;;
81801;SDS011;71199;52.490;5.448;2023-07-13T01:55:27;13.65;;;5.10;;
81801;SDS011;71199;52.490;5.448;2023-07-13T01:57:52;21.90;;;4.93;;
81801;SDS011;71199;52.490;5.448;2023-07-13T02:00:18;15.88;;;4.63;;
81801;SDS011;71199;52.490;5.448;2023-07-13T02:02:43;18.90;;;5.22;;
81801;SDS011;71199;52.490;5.448;2023-07-13T02:05:09;18.85;;;4.70;;
81801;SDS011;71199;52.490;5.448;2023-07-13T02:07:34;18.08;;;4.88;;
81801;SDS011;71199;52.490;5.448;2023-07-13T02:10:00;16.90;;;4.47;;
81801;SDS011;71199;52.490;5.448;2023-07-13T02:12:25;31.60;;;7.03;;
81801;SDS011;71199;52.490;5.448;2023-07-13T02:14:50;16.53;;;4.53;;
81801;SDS011;71199;52.490;5.448;2023-07-13T02:17:16;19.00;;;4.85;;
81801;SDS011;71199;52.490;5.448;2023-07-13T02:19:41;21.38;;;5.80;;
81801;SDS011;71199;52.490;5.448;2023-07-13T02:22:06;26.27;;;5.47;;
81801;SDS011;71199;52.490;5.448;2023-07-13T02:24:32;24.70;;;5.32;;
81801;SDS011;71199;52.490;5.448;2023-07-13T02:26:57;22.93;;;5.10;;
81801;SDS011;71199;52.490;5.448;2023-07-13T02:29:23;16.80;;;5.15;;
81801;SDS011;71199;52.490;5.448;2023-07-13T02:31:48;23.67;;;5.25;;
81801;SDS011;71199;52.490;5.448;2023-07-13T02:34:13;20.15;;;4.72;;
81801;SDS011;71199;52.490;5.448;2023-07-13T02:36:39;22.27;;;5.03;;
81801;SDS011;71199;52.490;5.448;2023-07-13T02:39:04;17.17;;;4.78;;
81801;SDS011;71199;52.490;5.448;2023-07-13T02:41:31;20.25;;;5.43;;
81801;SDS011;71199;52.490;5.448;2023-07-13T02:43:57;18.80;;;5.38;;
81801;SDS011;71199;52.490;5.448;2023-07-13T02:46:29;21.65;;;5.25;;
81801;SDS011;71199;52.490;5.448;2023-07-13T02:48:55;27.60;;;5.65;;
81801;SDS011;71199;52.490;5.448;2023-07-13T02:51:20;15.50;;;5.47;;
81801;SDS011;71199;52.490;5.448;2023-07-13T02:53:46;23.73;;;5.00;;
81801;SDS011;71199;52.490;5.448;2023-07-13T02:56:11;19.65;;;4.75;;
81801;SDS011;71199;52.490;5.448;2023-07-13T02:58:37;19.30;;;5.47;;
81801;SDS011;71199;52.490;5.448;2023-07-13T03:01:06;21.13;;;6.18;;
81801;SDS011;71199;52.490;5.448;2023-07-13T03:03:33;14.65;;;5.68;;
81801;SDS011;71199;52.490;5.448;2023-07-13T03:05:59;15.47;;;4.47;;
81801;SDS011;71199;52.490;5.448;2023-07-13T03:08:26;16.73;;;4.72;;
81801;SDS011;71199;52.490;5.448;2023-07-13T03:10:58;20.27;;;5.20;;
81801;SDS011;71199;52.490;5.448;2023-07-13T03:13:28;16.40;;;4.60;;
81801;SDS011;71199;52.490;5.448;2023-07-13T03:15:53;15.60;;;4.38;;
81801;SDS011;71199;52.490;5.448;2023-07-13T03:18:19;15.25;;;4.85;;
81801;SDS011;71199;52.490;5.448;2023-07-13T03:20:44;17.27;;;4.23;;
81801;SDS011;71199;52.490;5.448;2023-07-13T03:23:09;16.43;;;4.23;;
81801;SDS011;71199;52.490;5.448;2023-07-13T03:25:35;16.77;;;4.43;;
81801;SDS011;71199;52.490;5.448;2023-07-13T03:28:00;20.10;;;4.38;;
81801;SDS011;71199;52.490;5.448;2023-07-13T03:30:25;14.33;;;4.53;;
81801;SDS011;71199;52.490;5.448;2023-07-13T03:32:51;15.38;;;4.18;;
81801;SDS011;71199;52.490;5.448;2023-07-13T03:35:16;26.13;;;4.80;;
81801;SDS011;71199;52.490;5.448;2023-07-13T03:37:42;12.05;;;4.40;;
81801;SDS011;71199;52.490;5.448;2023-07-13T03:40:08;11.40;;;3.97;;
81801;SDS011;71199;52.490;5.448;2023-07-13T03:42:34;13.48;;;3.42;;
81801;SDS011;71199;52.490;5.448;2023-07-13T03:44:59;16.80;;;3.40;;
81801;SDS011;71199;52.490;5.448;2023-07-13T03:47:25;16.80;;;3.97;;
81801;SDS011;71199;52.490;5.448;2023-07-13T03:49:50;15.87;;;3.40;;
81801;SDS011;71199;52.490;5.448;2023-07-13T03:52:15;16.00;;;3.93;;
81801;SDS011;71199;52.490;5.448;2023-07-13T03:54:41;10.30;;;3.17;;
81801;SDS011;71199;52.490;5.448;2023-07-13T03:57:06;14.70;;;3.47;;
81801;SDS011;71199;52.490;5.448;2023-07-13T03:59:31;14.25;;;3.53;;
81801;SDS011;71199;52.490;5.448;2023-07-13T04:01:57;12.07;;;3.00;;
81801;SDS011;71199;52.490;5.448;2023-07-13T04:04:22;10.85;;;3.15;;
81801;SDS011;71199;52.490;5.448;2023-07-13T04:06:48;10.73;;;3.13;;
81801;SDS011;71199;52.490;5.448;2023-07-13T04:09:13;7.85;;;2.50;;
81801;SDS011;71199;52.490;5.448;2023-07-13T04:11:38;8.13;;;2.43;;
81801;SDS011;71199;52.490;5.448;2023-07-13T04:14:04;11.48;;;3.40;;
81801;SDS011;71199;52.490;5.448;2023-07-13T04:16:29;9.18;;;3.05;;
81801;SDS011;71199;52.490;5.448;2023-07-13T04:18:55;9.80;;;2.80;;
81801;SDS011;71199;52.490;5.448;2023-07-13T04:21:24;8.00;;;2.55;;
81801;SDS011;71199;52.490;5.448;2023-07-13T04:23:54;7.70;;;2.35;;
81801;SDS011;71199;52.490;5.448;2023-07-13T04:26:19;8.55;;;3.20;;
81801;SDS011;71199;52.490;5.448;2023-07-13T04:28:48;16.33;;;2.75;;
81801;SDS011;71199;52.490;5.448;2023-07-13T04:31:14;7.15;;;2.85;;
81801;SDS011;71199;52.490;5.448;2023-07-13T04:33:40;8.10;;;2.60;;
81801;SDS011;71199;52.490;5.448;2023-07-13T04:36:05;9.23;;;2.70;;
81801;SDS011;71199;52.490;5.448;2023-07-13T04:38:34;14.15;;;3.22;;
81801;SDS011;71199;52.490;5.448;2023-07-13T04:41:01;7.95;;;2.42;;
81801;SDS011;71199;52.490;5.448;2023-07-13T04:43:29;12.80;;;3.22;;
81801;SDS011;71199;52.490;5.448;2023-07-13T04:45:56;11.07;;;2.50;;
81801;SDS011;71199;52.490;5.448;2023-07-13T04:48:22;11.43;;;2.75;;
81801;SDS011;71199;52.490;5.448;2023-07-13T04:50:54;6.78;;;2.30;;
81801;SDS011;71199;52.490;5.448;2023-07-13T04:53:21;10.60;;;2.60;;
81801;SDS011;71199;52.490;5.448;2023-07-13T04:55:46;12.27;;;2.83;;
81801;SDS011;71199;52.490;5.448;2023-07-13T04:58:12;8.15;;;2.80;;
81801;SDS011;71199;52.490;5.448;2023-07-13T05:00:37;6.22;;;2.60;;
81801;SDS011;71199;52.490;5.448;2023-07-13T05:03:04;8.57;;;2.63;;
81801;SDS011;71199;52.490;5.448;2023-07-13T05:05:29;10.05;;;2.72;;
81801;SDS011;71199;52.490;5.448;2023-07-13T05:07:55;7.10;;;2.45;;
81801;SDS011;71199;52.490;5.448;2023-07-13T05:10:21;8.80;;;2.20;;
81801;SDS011;71199;52.490;5.448;2023-07-13T05:12:47;6.70;;;2.00;;
81801;SDS011;71199;52.490;5.448;2023-07-13T05:15:12;12.70;;;3.08;;
81801;SDS011;71199;52.490;5.448;2023-07-13T05:17:37;7.53;;;2.50;;
81801;SDS011;71199;52.490;5.448;2023-07-13T05:20:06;11.30;;;2.58;;
81801;SDS011;71199;52.490;5.448;2023-07-13T05:22:34;8.30;;;2.05;;
81801;SDS011;71199;52.490;5.448;2023-07-13T05:25:00;9.23;;;2.38;;
81801;SDS011;71199;52.490;5.448;2023-07-13T05:27:26;9.48;;;2.55;;
81801;SDS011;71199;52.490;5.448;2023-07-13T05:29:52;14.02;;;3.20;;
81801;SDS011;71199;52.490;5.448;2023-07-13T05:32:18;8.90;;;2.55;;
81801;SDS011;71199;52.490;5.448;2023-07-13T05:34:43;8.88;;;2.80;;
81801;SDS011;71199;52.490;5.448;2023-07-13T05:37:09;9.68;;;2.55;;
81801;SDS011;71199;52.490;5.448;2023-07-13T05:39:34;7.28;;;2.58;;
81801;SDS011;71199;52.490;5.448;2023-07-13T05:42:00;9.13;;;2.90;;
81801;SDS011;71199;52.490;5.448;2023-07-13T05:44:26;6.35;;;2.35;;
81801;SDS011;71199;52.490;5.448;2023-07-13T05:46:51;13.38;;;2.72;;
81801;SDS011;71199;52.490;5.448;2023-07-13T05:49:17;8.30;;;2.75;;
81801;SDS011;71199;52.490;5.448;2023-07-13T05:51:42;10.13;;;2.47;;
81801;SDS011;71199;52.490;5.448;2023-07-13T05:54:07;11.07;;;3.83;;
81801;SDS011;71199;52.490;5.448;2023-07-13T05:56:33;11.05;;;3.13;;
81801;SDS011;71199;52.490;5.448;2023-07-13T05:58:58;8.52;;;2.85;;
81801;SDS011;71199;52.490;5.448;2023-07-13T06:01:24;9.35;;;2.42;;
81801;SDS011;71199;52.490;5.448;2023-07-13T06:03:49;8.35;;;3.63;;
81801;SDS011;71199;52.490;5.448;2023-07-13T06:06:15;9.13;;;2.80;;
81801;SDS011;71199;52.490;5.448;2023-07-13T06:08:41;12.95;;;3.15;;
81801;SDS011;71199;52.490;5.448;2023-07-13T06:11:12;10.35;;;3.75;;
81801;SDS011;71199;52.490;5.448;2023-07-13T06:13:39;11.35;;;3.35;;
81801;SDS011;71199;52.490;5.448;2023-07-13T06:16:05;11.85;;;3.92;;
81801;SDS011;71199;52.490;5.448;2023-07-13T06:18:34;13.98;;;3.80;;
81801;SDS011;71199;52.490;5.448;2023-07-13T06:21:05;9.35;;;3.13;;
81801;SDS011;71199;52.490;5.448;2023-07-13T06:23:44;11.50;;;3.28;;
81801;SDS011;71199;52.490;5.448;2023-07-13T06:26:12;14.10;;;3.10;;
81801;SDS011;71199;52.490;5.448;2023-07-13T06:28:38;12.10;;;2.78;;
81801;SDS011;71199;52.490;5.448;2023-07-13T06:31:05;10.40;;;3.08;;
81801;SDS011;71199;52.490;5.448;2023-07-13T06:33:32;10.20;;;3.08;;
81801;SDS011;71199;52.490;5.448;2023-07-13T06:35:58;14.35;;;3.53;;
81801;SDS011;71199;52.490;5.448;2023-07-13T06:38:24;14.48;;;3.70;;
81801;SDS011;71199;52.490;5.448;2023-07-13T06:40:49;12.95;;;2.55;;
81801;SDS011;71199;52.490;5.448;2023-07-13T06:43:14;9.05;;;3.13;;
81801;SDS011;71199;52.490;5.448;2023-07-13T06:45:41;13.63;;;3.03;;
81801;SDS011;71199;52.490;5.448;2023-07-13T06:48:10;14.90;;;4.03;;
81801;SDS011;71199;52.490;5.448;2023-07-13T06:50:36;11.32;;;3.42;;
81801;SDS011;71199;52.490;5.448;2023-07-13T06:53:02;14.52;;;4.35;;
81801;SDS011;71199;52.490;5.448;2023-07-13T06:55:27;9.98;;;3.40;;
81801;SDS011;71199;52.490;5.448;2023-07-13T06:57:53;9.20;;;3.45;;
81801;SDS011;71199;52.490;5.448;2023-07-13T07:00:18;7.87;;;3.23;;
81801;SDS011;71199;52.490;5.448;2023-07-13T07:02:44;18.85;;;4.40;;
81801;SDS011;71199;52.490;5.448;2023-07-13T07:05:09;14.15;;;3.38;;
81801;SDS011;71199;52.490;5.448;2023-07-13T07:07:35;10.20;;;3.63;;
81801;SDS011;71199;52.490;5.448;2023-07-13T07:10:00;8.43;;;2.63;;
81801;SDS011;71199;52.490;5.448;2023-07-13T07:12:26;14.25;;;3.55;;
81801;SDS011;71199;52.490;5.448;2023-07-13T07:14:51;11.82;;;3.30;;
81801;SDS011;71199;52.490;5.448;2023-07-13T07:17:17;15.80;;;3.57;;
81801;SDS011;71199;52.490;5.448;2023-07-13T07:19:42;8.20;;;3.20;;
81801;SDS011;71199;52.490;5.448;2023-07-13T07:22:08;7.22;;;3.20;;
81801;SDS011;71199;52.490;5.448;2023-07-13T07:24:33;11.73;;;3.10;;
81801;SDS011;71199;52.490;5.448;2023-07-13T07:26:58;9.77;;;2.75;;
81801;SDS011;71199;52.490;5.448;2023-07-13T07:29:24;9.40;;;3.00;;
81801;SDS011;71199;52.490;5.448;2023-07-13T07:31:52;7.32;;;2.55;;
81801;SDS011;71199;52.490;5.448;2023-07-13T07:34:18;12.60;;;2.92;;
81801;SDS011;71199;52.490;5.448;2023-07-13T07:36:44;9.20;;;3.17;;
81801;SDS011;71199;52.490;5.448;2023-07-13T07:39:09;11.70;;;2.67;;
81801;SDS011;71199;52.490;5.448;2023-07-13T07:41:34;5.40;;;2.53;;
81801;SDS011;71199;52.490;5.448;2023-07-13T07:44:00;10.80;;;3.05;;
81801;SDS011;71199;52.490;5.448;2023-07-13T07:46:25;10.75;;;2.72;;
81801;SDS011;71199;52.490;5.448;2023-07-13T07:48:51;5.20;;;2.58;;
81801;SDS011;71199;52.490;5.448;2023-07-13T07:51:16;9.30;;;2.50;;
81801;SDS011;71199;52.490;5.448;2023-07-13T07:53:41;7.57;;;2.50;;
81801;SDS011;71199;52.490;5.448;2023-07-13T07:56:07;8.07;;;2.60;;
81801;SDS011;71199;52.490;5.448;2023-07-13T07:58:33;7.47;;;2.45;;
81801;SDS011;71199;52.490;5.448;2023-07-13T08:01:05;4.25;;;2.28;;
81801;SDS011;71199;52.490;5.448;2023-07-13T08:03:31;10.90;;;3.10;;
81801;SDS011;71199;52.490;5.448;2023-07-13T08:05:56;4.93;;;2.65;;
81801;SDS011;71199;52.490;5.448;2023-07-13T08:08:21;10.13;;;3.10;;
81801;SDS011;71199;52.490;5.448;2023-07-13T08:10:47;7.78;;;3.05;;
81801;SDS011;71199;52.490;5.448;2023-07-13T08:13:12;7.82;;;2.70;;
81801;SDS011;71199;52.490;5.448;2023-07-13T08:15:38;8.07;;;2.92;;
81801;SDS011;71199;52.490;5.448;2023-07-13T08:18:03;5.47;;;2.78;;
81801;SDS011;71199;52.490;5.448;2023-07-13T08:20:29;7.20;;;2.78;;
81801;SDS011;71199;52.490;5.448;2023-07-13T08:22:54;5.33;;;2.57;;
81801;SDS011;71199;52.490;5.448;2023-07-13T08:25:19;7.67;;;2.43;;
81801;SDS011;71199;52.490;5.448;2023-07-13T08:27:45;8.25;;;2.78;;
81801;SDS011;71199;52.490;5.448;2023-07-13T08:30:11;9.07;;;2.90;;
81801;SDS011;71199;52.490;5.448;2023-07-13T08:32:36;4.90;;;2.47;;
81801;SDS011;71199;52.490;5.448;2023-07-13T08:35:02;6.95;;;2.10;;
81801;SDS011;71199;52.490;5.448;2023-07-13T08:37:28;6.93;;;2.47;;
81801;SDS011;71199;52.490;5.448;2023-07-13T08:39:54;6.03;;;2.73;;
81801;SDS011;71199;52.490;5.448;2023-07-13T08:42:27;7.33;;;2.30;;
81801;SDS011;71199;52.490;5.448;2023-07-13T08:47:54;4.95;;;2.08;;
81801;SDS011;71199;52.490;5.448;2023-07-13T08:50:27;6.10;;;2.58;;
81801;SDS011;71199;52.490;5.448;2023-07-13T08:52:59;6.85;;;2.30;;
81801;SDS011;71199;52.490;5.448;2023-07-13T08:55:29;4.00;;;2.20;;
81801;SDS011;71199;52.490;5.448;2023-07-13T09:00:41;5.93;;;2.28;;
81801;SDS011;71199;52.490;5.448;2023-07-13T09:03:18;5.40;;;2.00;;
81801;SDS011;71199;52.490;5.448;2023-07-13T09:05:49;5.70;;;2.47;;
81801;SDS011;71199;52.490;5.448;2023-07-13T09:17:27;3.95;;;2.00;;
81801;SDS011;71199;52.490;5.448;2023-07-13T09:20:01;5.13;;;1.95;;
81801;SDS011;71199;52.490;5.448;2023-07-13T09:25:02;7.75;;;2.10;;
81801;SDS011;71199;52.490;5.448;2023-07-13T09:27:38;5.78;;;2.42;;
81801;SDS011;71199;52.490;5.448;2023-07-13T09:32:39;6.68;;;2.20;;
81801;SDS011;71199;52.490;5.448;2023-07-13T09:35:11;7.78;;;2.75;;
81801;SDS011;71199;52.490;5.448;2023-07-13T09:37:40;8.32;;;2.63;;
81801;SDS011;71199;52.490;5.448;2023-07-13T09:40:28;10.30;;;2.38;;
81801;SDS011;71199;52.490;5.448;2023-07-13T09:43:01;5.82;;;2.30;;
81801;SDS011;71199;52.490;5.448;2023-07-13T09:45:30;6.90;;;2.30;;
81801;SDS011;71199;52.490;5.448;2023-07-13T09:47:59;4.55;;;1.77;;
81801;SDS011;71199;52.490;5.448;2023-07-13T09:50:30;10.07;;;2.65;;
81801;SDS011;71199;52.490;5.448;2023-07-13T09:52:56;7.65;;;2.22;;
81801;SDS011;71199;52.490;5.448;2023-07-13T09:57:49;7.57;;;2.35;;
81801;SDS011;71199;52.490;5.448;2023-07-13T10:00:22;9.30;;;2.67;;
81801;SDS011;71199;52.490;5.448;2023-07-13T10:03:14;8.10;;;3.45;;
81801;SDS011;71199;52.490;5.448;2023-07-13T10:05:44;3.50;;;2.10;;
81801;SDS011;71199;52.490;5.448;2023-07-13T10:08:18;5.22;;;2.47;;
81801;SDS011;71199;52.490;5.448;2023-07-13T10:10:59;9.77;;;2.40;;
81801;SDS011;71199;52.490;5.448;2023-07-13T10:15:56;5.28;;;2.40;;
81801;SDS011;71199;52.490;5.448;2023-07-13T10:18:24;5.53;;;2.72;;
81801;SDS011;71199;52.490;5.448;2023-07-13T10:23:20;7.60;;;2.83;;
81801;SDS011;71199;52.490;5.448;2023-07-13T10:25:52;8.90;;;2.33;;
81801;SDS011;71199;52.490;5.448;2023-07-13T10:28:26;7.85;;;2.10;;
81801;SDS011;71199;52.490;5.448;2023-07-13T10:30:55;10.98;;;3.58;;
81801;SDS011;71199;52.490;5.448;2023-07-13T10:33:23;5.60;;;2.33;;
81801;SDS011;71199;52.490;5.448;2023-07-13T10:35:49;5.32;;;2.25;;
81801;SDS011;71199;52.490;5.448;2023-07-13T10:38:22;7.38;;;2.40;;
81801;SDS011;71199;52.490;5.448;2023-07-13T10:41:00;4.43;;;2.20;;
81801;SDS011;71199;52.490;5.448;2023-07-13T10:43:37;6.70;;;2.17;;
81801;SDS011;71199;52.490;5.448;2023-07-13T10:46:08;5.53;;;2.10;;
81801;SDS011;71199;52.490;5.448;2023-07-13T10:48:36;7.82;;;2.50;;
81801;SDS011;71199;52.490;5.448;2023-07-13T10:51:04;6.18;;;1.90;;
81801;SDS011;71199;52.490;5.448;2023-07-13T10:53:35;7.90;;;2.42;;
81801;SDS011;71199;52.490;5.448;2023-07-13T10:56:06;7.30;;;3.13;;
81801;SDS011;71199;52.490;5.448;2023-07-13T10:58:42;7.32;;;2.58;;
81801;SDS011;71199;52.490;5.448;2023-07-13T11:08:37;6.10;;;2.80;;
81801;SDS011;71199;52.490;5.448;2023-07-13T11:18:41;7.40;;;2.00;;
81801;SDS011;71199;52.490;5.448;2023-07-13T11:21:28;5.60;;;2.42;;
81801;SDS011;71199;52.490;5.448;2023-07-13T11:24:14;6.45;;;2.17;;
81801;SDS011;71199;52.490;5.448;2023-07-13T11:26:42;8.43;;;3.30;;
81801;SDS011;71199;52.490;5.448;2023-07-13T11:29:23;5.95;;;2.22;;
81801;SDS011;71199;52.490;5.448;2023-07-13T11:31:56;6.82;;;2.30;;
81801;SDS011;71199;52.490;5.448;2023-07-13T11:34:31;5.15;;;2.20;;
81801;SDS011;71199;52.490;5.448;2023-07-13T11:37:00;6.60;;;2.70;;
81801;SDS011;71199;52.490;5.448;2023-07-13T11:41:57;4.68;;;2.30;;
81801;SDS011;71199;52.490;5.448;2023-07-13T11:44:28;9.45;;;2.35;;
81801;SDS011;71199;52.490;5.448;2023-07-13T11:46:57;5.65;;;2.05;;
81801;SDS011;71199;52.490;5.448;2023-07-13T11:49:26;3.80;;;2.15;;
81801;SDS011;71199;52.490;5.448;2023-07-13T11:51:54;5.45;;;2.40;;
81801;SDS011;71199;52.490;5.448;2023-07-13T11:54:26;4.22;;;2.22;;
81801;SDS011;71199;52.490;5.448;2023-07-13T11:56:55;4.10;;;1.80;;
81801;SDS011;71199;52.490;5.448;2023-07-13T11:59:23;7.80;;;2.50;;
81801;SDS011;71199;52.490;5.448;2023-07-13T12:01:51;6.57;;;2.85;;
81801;SDS011;71199;52.490;5.448;2023-07-13T12:04:23;5.15;;;2.28;;
81801;SDS011;71199;52.490;5.448;2023-07-13T12:06:54;6.10;;;2.42;;
81801;SDS011;71199;52.490;5.448;2023-07-13T12:09:21;4.85;;;2.40;;
81801;SDS011;71199;52.490;5.448;2023-07-13T12:11:50;5.93;;;2.00;;
81801;SDS011;71199;52.490;5.448;2023-07-13T12:14:16;10.13;;;2.10;;
81801;SDS011;71199;52.490;5.448;2023-07-13T12:16:43;8.52;;;2.40;;
81801;SDS011;71199;52.490;5.448;2023-07-13T12:19:22;6.88;;;2.60;;
81801;SDS011;71199;52.490;5.448;2023-07-13T12:21:53;5.95;;;2.17;;
81801;SDS011;71199;52.490;5.448;2023-07-13T12:24:21;6.03;;;2.00;;
81801;SDS011;71199;52.490;5.448;2023-07-13T12:26:59;5.43;;;2.00;;
81801;SDS011;71199;52.490;5.448;2023-07-13T12:29:27;5.43;;;1.95;;
81801;SDS011;71199;52.490;5.448;2023-07-13T12:31:52;7.75;;;2.22;;
81801;SDS011;71199;52.490;5.448;2023-07-13T12:34:19;6.20;;;1.83;;
81801;SDS011;71199;52.490;5.448;2023-07-13T12:36:48;6.80;;;2.17;;
81801;SDS011;71199;52.490;5.448;2023-07-13T12:39:17;7.20;;;2.33;;
81801;SDS011;71199;52.490;5.448;2023-07-13T12:41:45;7.30;;;2.20;;
81801;SDS011;71199;52.490;5.448;2023-07-13T12:44:11;7.43;;;2.30;;
81801;SDS011;71199;52.490;5.448;2023-07-13T12:46:39;6.70;;;2.25;;
81801;SDS011;71199;52.490;5.448;2023-07-13T12:49:05;3.97;;;2.30;;
81801;SDS011;71199;52.490;5.448;2023-07-13T12:51:32;4.45;;;2.00;;
81801;SDS011;71199;52.490;5.448;2023-07-13T12:54:16;5.00;;;2.28;;
81801;SDS011;71199;52.490;5.448;2023-07-13T12:56:44;7.03;;;2.22;;
81801;SDS011;71199;52.490;5.448;2023-07-13T12:59:14;4.82;;;2.40;;
81801;SDS011;71199;52.490;5.448;2023-07-13T13:01:43;5.00;;;1.90;;
81801;SDS011;71199;52.490;5.448;2023-07-13T13:04:09;5.78;;;1.90;;
81801;SDS011;71199;52.490;5.448;2023-07-13T13:06:36;4.50;;;2.17;;
81801;SDS011;71199;52.490;5.448;2023-07-13T13:09:02;5.80;;;2.28;;
81801;SDS011;71199;52.490;5.448;2023-07-13T13:11:29;7.15;;;2.30;;
81801;SDS011;71199;52.490;5.448;2023-07-13T13:13:55;6.00;;;3.40;;
81801;SDS011;71199;52.490;5.448;2023-07-13T13:16:29;5.90;;;2.28;;
81801;SDS011;71199;52.490;5.448;2023-07-13T13:18:57;5.57;;;2.55;;
81801;SDS011;71199;52.490;5.448;2023-07-13T13:21:27;4.82;;;2.10;;
81801;SDS011;71199;52.490;5.448;2023-07-13T13:23:53;5.45;;;2.20;;
81801;SDS011;71199;52.490;5.448;2023-07-13T13:26:19;4.40;;;2.15;;
81801;SDS011;71199;52.490;5.448;2023-07-13T13:28:46;5.43;;;2.42;;
81801;SDS011;71199;52.490;5.448;2023-07-13T13:31:13;6.80;;;2.88;;
81801;SDS011;71199;52.490;5.448;2023-07-13T13:33:40;6.20;;;2.40;;
81801;SDS011;71199;52.490;5.448;2023-07-13T13:36:19;5.93;;;2.78;;
81801;SDS011;71199;52.490;5.448;2023-07-13T13:38:47;4.57;;;2.00;;
81801;SDS011;71199;52.490;5.448;2023-07-13T13:41:13;8.25;;;2.30;;
81801;SDS011;71199;52.490;5.448;2023-07-13T13:43:40;7.07;;;2.10;;
81801;SDS011;71199;52.490;5.448;2023-07-13T13:46:20;7.93;;;2.55;;
81801;SDS011;71199;52.490;5.448;2023-07-13T13:48:50;6.47;;;2.42;;
81801;SDS011;71199;52.490;5.448;2023-07-13T13:51:17;7.78;;;2.92;;
81801;SDS011;71199;52.490;5.448;2023-07-13T13:53:44;4.28;;;2.60;;
81801;SDS011;71199;52.490;5.448;2023-07-13T13:56:11;13.20;;;2.75;;
81801;SDS011;71199;52.490;5.448;2023-07-13T13:58:37;8.93;;;2.60;;
81801;SDS011;71199;52.490;5.448;2023-07-13T14:01:03;6.37;;;2.80;;
81801;SDS011;71199;52.490;5.448;2023-07-13T14:03:33;6.82;;;2.70;;
81801;SDS011;71199;52.490;5.448;2023-07-13T14:05:59;5.03;;;2.45;;
81801;SDS011;71199;52.490;5.448;2023-07-13T14:08:24;8.45;;;2.50;;
81801;SDS011;71199;52.490;5.448;2023-07-13T14:10:51;4.85;;;2.58;;
81801;SDS011;71199;52.490;5.448;2023-07-13T14:13:32;10.82;;;2.67;;
81801;SDS011;71199;52.490;5.448;2023-07-13T14:16:01;5.45;;;2.33;;
81801;SDS011;71199;52.490;5.448;2023-07-13T14:18:27;5.78;;;2.20;;
81801;SDS011;71199;52.490;5.448;2023-07-13T14:20:52;6.13;;;2.60;;
81801;SDS011;71199;52.490;5.448;2023-07-13T14:23:18;7.95;;;2.60;;
81801;SDS011;71199;52.490;5.448;2023-07-13T14:25:46;6.95;;;2.65;;
81801;SDS011;71199;52.490;5.448;2023-07-13T14:28:25;10.07;;;2.22;;
81801;SDS011;71199;52.490;5.448;2023-07-13T14:30:52;6.97;;;2.75;;
81801;SDS011;71199;52.490;5.448;2023-07-13T14:33:19;6.95;;;2.50;;
81801;SDS011;71199;52.490;5.448;2023-07-13T14:35:45;7.97;;;2.92;;
81801;SDS011;71199;52.490;5.448;2023-07-13T14:38:12;9.25;;;3.20;;
81801;SDS011;71199;52.490;5.448;2023-07-13T14:40:41;8.25;;;2.33;;
81801;SDS011;71199;52.490;5.448;2023-07-13T14:43:10;8.45;;;2.35;;
81801;SDS011;71199;52.490;5.448;2023-07-13T14:45:41;5.65;;;2.28;;
81801;SDS011;71199;52.490;5.448;2023-07-13T14:48:21;7.13;;;2.88;;
81801;SDS011;71199;52.490;5.448;2023-07-13T14:50:55;4.50;;;2.60;;
81801;SDS011;71199;52.490;5.448;2023-07-13T14:53:22;8.10;;;2.47;;
81801;SDS011;71199;52.490;5.448;2023-07-13T14:55:48;7.85;;;2.70;;
81801;SDS011;71199;52.490;5.448;2023-07-13T14:58:13;4.82;;;2.78;;
81801;SDS011;71199;52.490;5.448;2023-07-13T15:00:38;5.13;;;2.53;;
81801;SDS011;71199;52.490;5.448;2023-07-13T15:03:05;5.70;;;2.40;;
81801;SDS011;71199;52.490;5.448;2023-07-13T15:05:40;7.80;;;3.05;;
81801;SDS011;71199;52.490;5.448;2023-07-13T15:08:05;7.65;;;3.10;;
81801;SDS011;71199;52.490;5.448;2023-07-13T15:10:32;4.70;;;2.50;;
81801;SDS011;71199;52.490;5.448;2023-07-13T15:13:12;9.50;;;2.67;;
81801;SDS011;71199;52.490;5.448;2023-07-13T15:15:44;5.60;;;2.47;;
81801;SDS011;71199;52.490;5.448;2023-07-13T15:18:12;5.03;;;2.55;;
81801;SDS011;71199;52.490;5.448;2023-07-13T15:20:39;6.88;;;2.50;;
81801;SDS011;71199;52.490;5.448;2023-07-13T15:23:04;4.50;;;2.40;;
81801;SDS011;71199;52.490;5.448;2023-07-13T15:25:31;4.80;;;2.40;;
81801;SDS011;71199;52.490;5.448;2023-07-13T15:27:58;4.97;;;2.20;;
81801;SDS011;71199;52.490;5.448;2023-07-13T15:30:36;7.82;;;2.35;;
81801;SDS011;71199;52.490;5.448;2023-07-13T15:33:10;6.63;;;2.70;;
81801;SDS011;71199;52.490;5.448;2023-07-13T15:35:44;8.27;;;3.15;;